Time;durP1;ratioP1;P1;durP2;ratioP2;P2;SDS_P1;SDS_P2;PMS_P1;PMS_P2;Temp;Humidity;BMP_temperature;BMP_pressure;BME280_temperature;BME280_humidity;BME280_pressure;Samples;Min_cycle;Max_cycle;Signal;HPM_P1;HPM_P2
2023/03/12 00:00:43;;;;;;;9.60;3.25;;;2.20;99.90;;;;;;6152099;23;20381;-86
2023/03/12 00:03:09;;;;;;;10.82;3.38;;;2.20;99.90;;;;;;6152234;23;20021;-86
2023/03/12 00:05:39;;;;;;;9.80;3.65;;;2.20;99.90;;;;;;6127390;23;20024;-87
2023/03/12 00:08:05;;;;;;;8.93;3.08;;;2.20;99.90;;;;;;6151282;23;20678;-87
2023/03/12 00:10:30;;;;;;;11.00;3.80;;;2.10;99.90;;;;;;6152301;23;20017;-86
2023/03/12 00:12:57;;;;;;;12.25;3.28;;;2.10;99.90;;;;;;6151869;23;20013;-86
2023/03/12 00:15:23;;;;;;;10.70;3.20;;;2.10;99.90;;;;;;6126424;23;20024;-86
2023/03/12 00:17:49;;;;;;;9.98;3.13;;;2.10;99.90;;;;;;6151294;23;20013;-86
2023/03/12 00:20:15;;;;;;;10.20;4.15;;;2.10;99.90;;;;;;6126689;23;20013;-87
2023/03/12 00:22:41;;;;;;;11.20;3.50;;;2.10;99.90;;;;;;6127863;23;20357;-87
2023/03/12 00:25:11;;;;;;;11.65;4.07;;;2.00;99.90;;;;;;6126532;23;20482;-86
2023/03/12 00:27:37;;;;;;;11.38;3.28;;;2.10;99.90;;;;;;6127114;23;20013;-86
2023/03/12 00:30:04;;;;;;;13.85;3.67;;;2.00;99.90;;;;;;6126944;23;20109;-86
2023/03/12 00:32:34;;;;;;;8.82;3.40;;;2.00;99.90;;;;;;6151547;23;20014;-86
2023/03/12 00:34:59;;;;;;;11.55;3.28;;;2.00;99.90;;;;;;6151687;23;20092;-86
2023/03/12 00:37:25;;;;;;;9.23;3.50;;;1.90;99.90;;;;;;6151294;23;20049;-86
2023/03/12 00:39:51;;;;;;;10.65;3.13;;;1.90;99.90;;;;;;6151514;23;20021;-86
2023/03/12 00:42:17;;;;;;;10.90;3.67;;;1.90;99.90;;;;;;6127362;23;20013;-86
2023/03/12 00:44:43;;;;;;;10.10;3.33;;;1.90;99.90;;;;;;6126532;23;20021;-86
2023/03/12 00:47:09;;;;;;;9.93;3.78;;;1.90;99.90;;;;;;6151907;23;20013;-86
2023/03/12 00:49:35;;;;;;;8.27;3.05;;;1.90;99.90;;;;;;6126530;23;20521;-86
2023/03/12 00:52:01;;;;;;;8.48;2.78;;;1.90;99.90;;;;;;6151638;23;20041;-86
2023/03/12 00:54:26;;;;;;;7.65;2.80;;;1.90;99.90;;;;;;6127308;23;20016;-86
2023/03/12 00:56:52;;;;;;;11.32;2.88;;;1.90;99.90;;;;;;6126737;23;20024;-86
2023/03/12 00:59:18;;;;;;;6.53;2.85;;;1.90;99.90;;;;;;6150674;23;20010;-86
2023/03/12 01:01:44;;;;;;;11.70;3.70;;;1.90;99.90;;;;;;6151070;23;20502;-86
2023/03/12 01:04:09;;;;;;;8.55;3.35;;;1.90;99.90;;;;;;6127670;23;20080;-86
2023/03/12 01:06:35;;;;;;;7.88;2.47;;;1.90;99.90;;;;;;6153308;23;20024;-86
2023/03/12 01:09:06;;;;;;;13.65;3.00;;;1.80;99.90;;;;;;6128408;23;20068;-86
2023/03/12 01:11:32;;;;;;;9.80;3.13;;;1.80;99.90;;;;;;6154002;23;20088;-86
2023/03/12 01:13:59;;;;;;;10.15;2.30;;;1.80;99.90;;;;;;6128657;23;20104;-87
2023/03/12 01:16:28;;;;;;;5.70;2.42;;;1.80;99.90;;;;;;6154025;23;20465;-86
2023/03/12 01:18:55;;;;;;;8.05;2.42;;;1.80;99.90;;;;;;6153399;23;20013;-87
2023/03/12 01:21:21;;;;;;;9.82;2.60;;;1.80;99.90;;;;;;6153602;23;20025;-86
2023/03/12 01:23:46;;;;;;;7.70;3.10;;;1.80;99.90;;;;;;6153611;23;20100;-86
2023/03/12 01:26:12;;;;;;;7.07;2.80;;;1.80;99.90;;;;;;6128573;23;20053;-86
2023/03/12 01:28:37;;;;;;;10.45;3.38;;;1.80;99.90;;;;;;6152792;23;20167;-85
2023/03/12 01:31:09;;;;;;;7.53;2.40;;;1.80;99.90;;;;;;6129064;23;20014;-86
2023/03/12 01:33:35;;;;;;;9.68;2.85;;;1.80;99.90;;;;;;6128820;23;20088;-86
2023/03/12 01:36:00;;;;;;;7.63;1.92;;;1.80;99.90;;;;;;6153638;23;20052;-86
2023/03/12 01:38:26;;;;;;;6.03;2.00;;;1.90;99.90;;;;;;6152774;23;20017;-86
2023/03/12 01:40:52;;;;;;;5.38;1.75;;;1.90;99.90;;;;;;6128442;23;20120;-86
2023/03/12 01:43:33;;;;;;;6.60;2.05;;;1.90;99.90;;;;;;6127486;23;20013;-86
2023/03/12 01:46:04;;;;;;;7.43;2.22;;;1.90;99.90;;;;;;6153431;23;20397;-86
2023/03/12 01:48:37;;;;;;;9.93;2.40;;;2.00;99.90;;;;;;6152959;23;20354;-86
2023/03/12 01:51:03;;;;;;;8.07;1.85;;;2.00;99.90;;;;;;6153351;23;20096;-86
2023/03/12 01:53:29;;;;;;;4.70;1.65;;;2.00;99.90;;;;;;6153658;23;20415;-86
2023/03/12 01:55:57;;;;;;;5.22;1.75;;;2.00;99.90;;;;;;6153014;23;20021;-86
2023/03/12 01:58:23;;;;;;;5.35;1.83;;;2.00;99.90;;;;;;6153274;23;20397;-86
2023/03/12 02:00:49;;;;;;;6.13;2.15;;;2.00;99.90;;;;;;6153415;23;20049;-86
2023/03/12 02:03:15;;;;;;;7.30;2.00;;;1.90;99.90;;;;;;6153546;23;20027;-87
2023/03/12 02:05:44;;;;;;;7.97;2.47;;;2.00;99.90;;;;;;6151434;23;20477;-86
2023/03/12 02:08:11;;;;;;;7.57;2.40;;;1.90;99.90;;;;;;6151889;23;20593;-87
2023/03/12 02:10:36;;;;;;;5.18;2.45;;;1.90;99.90;;;;;;6153132;23;20041;-87
2023/03/12 02:13:02;;;;;;;5.80;2.00;;;1.90;99.90;;;;;;6152726;23;20080;-87
2023/03/12 02:15:28;;;;;;;5.32;2.00;;;1.90;99.90;;;;;;6152771;23;20021;-86
2023/03/12 02:17:54;;;;;;;9.60;2.42;;;1.90;99.90;;;;;;6128296;23;20013;-87
2023/03/12 02:20:34;;;;;;;7.30;2.15;;;1.90;99.90;;;;;;6152184;23;20018;-86
2023/03/12 02:23:09;;;;;;;5.47;2.00;;;1.80;99.90;;;;;;6128572;23;20353;-86
2023/03/12 02:25:42;;;;;;;6.90;2.38;;;1.90;99.90;;;;;;6128631;23;20085;-88
2023/03/12 02:28:12;;;;;;;6.13;2.40;;;1.80;99.90;;;;;;6153060;23;20072;-85
2023/03/12 02:30:41;;;;;;;8.57;2.50;;;1.80;99.90;;;;;;6128065;23;20020;-85
2023/03/12 02:33:09;;;;;;;6.00;2.05;;;1.80;99.90;;;;;;6153267;23;20088;-85
2023/03/12 02:35:35;;;;;;;7.97;1.90;;;1.80;99.90;;;;;;6128221;23;20536;-85
2023/03/12 02:38:02;;;;;;;7.85;2.35;;;1.80;99.90;;;;;;6127840;23;20021;-85
2023/03/12 02:40:33;;;;;;;7.35;2.00;;;1.80;99.90;;;;;;6127873;23;20017;-86
2023/03/12 02:43:00;;;;;;;7.72;2.05;;;1.80;99.90;;;;;;6151038;23;20060;-86
2023/03/12 02:45:28;;;;;;;5.95;1.95;;;1.80;99.90;;;;;;6151930;23;20048;-86
2023/03/12 02:47:54;;;;;;;6.55;2.00;;;1.80;99.90;;;;;;6126839;23;20009;-86
2023/03/12 02:50:20;;;;;;;7.78;2.30;;;1.90;99.90;;;;;;6127162;23;20155;-86
2023/03/12 02:52:45;;;;;;;7.15;2.38;;;1.90;99.90;;;;;;6152091;23;20013;-86
2023/03/12 02:55:11;;;;;;;9.02;2.13;;;1.90;99.90;;;;;;6128328;23;20065;-86
2023/03/12 02:57:37;;;;;;;7.63;2.47;;;1.90;99.90;;;;;;6152569;23;20010;-86
2023/03/12 03:00:05;;;;;;;7.65;2.67;;;1.90;99.90;;;;;;6127348;23;20401;-86
2023/03/12 03:02:31;;;;;;;8.70;3.28;;;2.00;99.90;;;;;;6127261;23;20013;-86
2023/03/12 03:04:57;;;;;;;7.28;2.65;;;2.00;99.90;;;;;;6151177;23;20016;-86
2023/03/12 03:07:22;;;;;;;6.78;3.15;;;2.00;99.90;;;;;;6151059;23;20049;-86
2023/03/12 03:09:48;;;;;;;8.45;2.72;;;2.00;99.90;;;;;;6151669;23;20025;-86
2023/03/12 03:12:14;;;;;;;9.35;3.13;;;2.00;99.90;;;;;;6127322;23;20427;-86
2023/03/12 03:14:39;;;;;;;11.55;3.35;;;2.00;99.90;;;;;;6128300;23;20017;-86
2023/03/12 03:17:05;;;;;;;7.45;3.10;;;2.00;99.90;;;;;;6152575;23;20026;-86
2023/03/12 03:19:30;;;;;;;8.80;2.80;;;2.00;99.90;;;;;;6152207;23;20017;-85
2023/03/12 03:21:56;;;;;;;11.50;3.65;;;2.00;99.90;;;;;;6152779;23;20469;-86
2023/03/12 03:24:21;;;;;;;9.20;3.72;;;2.00;99.90;;;;;;6127286;23;20017;-85
2023/03/12 03:26:47;;;;;;;9.68;3.15;;;2.00;99.90;;;;;;6150753;23;20409;-86
2023/03/12 03:29:13;;;;;;;11.55;3.53;;;2.00;99.90;;;;;;6126188;23;20096;-86
2023/03/12 03:31:38;;;;;;;7.75;3.15;;;2.00;99.90;;;;;;6126546;23;20017;-86
2023/03/12 03:34:04;;;;;;;9.80;2.88;;;2.00;99.90;;;;;;6151672;23;20044;-86
2023/03/12 03:36:29;;;;;;;10.40;3.20;;;2.00;99.90;;;;;;6127495;23;20013;-86
2023/03/12 03:38:55;;;;;;;8.77;3.15;;;2.00;99.90;;;;;;6152382;23;20025;-86
2023/03/12 03:41:21;;;;;;;8.32;3.10;;;2.00;99.90;;;;;;6152101;23;20021;-86
2023/03/12 03:43:47;;;;;;;8.82;3.20;;;2.00;99.90;;;;;;6127626;23;20022;-86
2023/03/12 03:46:14;;;;;;;10.35;3.72;;;2.10;99.90;;;;;;6128038;23;20024;-86
2023/03/12 03:48:39;;;;;;;9.88;3.53;;;2.10;99.90;;;;;;6152022;23;20044;-86
2023/03/12 03:51:07;;;;;;;10.23;3.33;;;2.10;99.90;;;;;;6127661;23;20017;-86
2023/03/12 03:53:33;;;;;;;8.50;3.20;;;2.10;99.90;;;;;;6152407;23;20349;-86
2023/03/12 03:56:08;;;;;;;9.77;3.35;;;2.10;99.90;;;;;;6127081;23;20017;-86
2023/03/12 03:58:34;;;;;;;8.55;3.30;;;2.10;99.90;;;;;;6151990;23;20017;-86
2023/03/12 04:00:59;;;;;;;10.20;3.50;;;2.10;99.90;;;;;;6126921;23;20067;-85
2023/03/12 04:03:25;;;;;;;10.07;5.05;;;2.10;99.90;;;;;;6150599;23;20083;-86
2023/03/12 04:05:59;;;;;;;9.77;4.47;;;2.10;99.90;;;;;;6150150;23;20024;-86
2023/03/12 04:08:26;;;;;;;14.23;4.53;;;2.10;99.90;;;;;;6125804;23;20390;-86
2023/03/12 04:10:52;;;;;;;9.73;4.15;;;2.10;99.90;;;;;;6152325;23;20020;-86
2023/03/12 04:13:18;;;;;;;10.18;4.20;;;2.10;99.90;;;;;;6127579;23;20013;-86
2023/03/12 04:16:02;;;;;;;9.13;3.92;;;2.10;99.90;;;;;;6150789;23;20076;-86
2023/03/12 04:18:27;;;;;;;11.45;5.25;;;2.10;99.90;;;;;;6151913;23;20029;-86
2023/03/12 04:20:53;;;;;;;11.95;4.65;;;2.10;99.90;;;;;;6127692;23;20025;-86
2023/03/12 04:23:18;;;;;;;8.88;3.95;;;2.10;99.90;;;;;;6152315;23;20017;-86
2023/03/12 04:25:44;;;;;;;11.18;4.35;;;2.10;99.90;;;;;;6152007;23;20067;-86
2023/03/12 04:28:10;;;;;;;10.05;4.22;;;2.10;99.90;;;;;;6150764;23;20024;-86
2023/03/12 04:30:37;;;;;;;11.32;3.90;;;2.10;99.90;;;;;;6151118;23;20448;-86
2023/03/12 04:33:04;;;;;;;9.32;4.30;;;2.10;99.90;;;;;;6151133;23;20018;-86
2023/03/12 04:35:30;;;;;;;11.15;4.38;;;2.10;99.90;;;;;;6150090;23;20096;-86
2023/03/12 04:37:55;;;;;;;11.07;4.38;;;2.10;99.90;;;;;;6126094;23;20512;-86
2023/03/12 04:40:21;;;;;;;10.07;4.53;;;2.10;99.90;;;;;;6151403;23;20504;-86
2023/03/12 04:42:48;;;;;;;9.23;4.15;;;2.10;99.90;;;;;;6128527;23;20052;-86
2023/03/12 04:45:14;;;;;;;10.65;3.88;;;2.10;99.90;;;;;;6153117;23;20018;-86
2023/03/12 04:47:39;;;;;;;11.68;4.15;;;2.10;99.90;;;;;;6127668;23;20072;-86
2023/03/12 04:50:06;;;;;;;10.02;4.22;;;2.10;99.90;;;;;;6128410;23;20017;-86
2023/03/12 04:52:31;;;;;;;12.32;4.75;;;2.10;99.90;;;;;;6127781;23;20449;-86
2023/03/12 04:54:58;;;;;;;10.63;4.55;;;2.10;99.90;;;;;;6127136;23;20496;-86
2023/03/12 04:57:24;;;;;;;14.85;5.28;;;2.10;99.90;;;;;;6150876;23;20342;-86
2023/03/12 04:59:50;;;;;;;10.38;4.25;;;2.10;99.90;;;;;;6124971;23;20017;-86
2023/03/12 05:02:15;;;;;;;9.45;4.20;;;2.10;99.90;;;;;;6150450;23;20021;-86
2023/03/12 05:04:41;;;;;;;10.30;4.50;;;2.10;99.90;;;;;;6149009;23;20021;-85
2023/03/12 05:07:06;;;;;;;9.65;4.40;;;2.10;99.90;;;;;;6150852;23;20014;-85
2023/03/12 05:09:32;;;;;;;11.73;4.93;;;2.10;99.90;;;;;;6151033;23;20048;-86
2023/03/12 05:11:57;;;;;;;11.90;4.95;;;2.10;99.90;;;;;;6150662;23;20014;-86
2023/03/12 05:14:23;;;;;;;13.07;5.45;;;2.10;99.90;;;;;;6126394;23;20013;-86
2023/03/12 05:16:49;;;;;;;9.02;4.22;;;2.20;99.90;;;;;;6150810;23;20414;-85
2023/03/12 05:19:14;;;;;;;10.50;4.53;;;2.20;99.90;;;;;;6150978;23;20080;-86
2023/03/12 05:21:41;;;;;;;13.52;5.45;;;2.20;99.90;;;;;;6127020;23;20484;-86
2023/03/12 05:24:07;;;;;;;10.48;5.30;;;2.20;99.90;;;;;;6150749;23;20013;-86
2023/03/12 05:26:34;;;;;;;11.38;4.95;;;2.20;99.90;;;;;;6127037;23;20017;-86
2023/03/12 05:29:00;;;;;;;9.65;4.90;;;2.20;99.90;;;;;;6125357;23;20017;-86
2023/03/12 05:31:27;;;;;;;11.63;5.30;;;2.20;99.90;;;;;;6150447;23;20018;-86
2023/03/12 05:33:53;;;;;;;11.00;4.90;;;2.20;99.90;;;;;;6150797;23;20014;-86
2023/03/12 05:36:19;;;;;;;12.75;5.90;;;2.30;99.90;;;;;;6125959;23;20068;-86
2023/03/12 05:38:45;;;;;;;14.00;5.65;;;2.20;99.90;;;;;;6151473;23;20009;-86
2023/03/12 05:41:20;;;;;;;12.82;5.15;;;2.20;99.90;;;;;;6151296;23;20111;-86
2023/03/12 05:43:45;;;;;;;9.48;4.75;;;2.20;99.90;;;;;;6150995;23;20104;-85
2023/03/12 05:46:11;;;;;;;13.85;5.78;;;2.20;99.90;;;;;;6151071;23;20492;-86
2023/03/12 05:48:37;;;;;;;10.85;4.93;;;2.20;99.90;;;;;;6150090;23;20014;-86
2023/03/12 05:51:02;;;;;;;10.85;4.68;;;2.20;99.90;;;;;;6128486;23;20027;-86
2023/03/12 05:53:28;;;;;;;10.90;5.18;;;2.30;99.90;;;;;;6128307;23;20014;-86
2023/03/12 05:55:54;;;;;;;11.75;5.32;;;2.30;99.90;;;;;;6127621;23;20018;-86
2023/03/12 05:58:19;;;;;;;11.25;4.63;;;2.30;99.90;;;;;;6150884;23;20021;-86
2023/03/12 06:00:45;;;;;;;10.02;4.68;;;2.30;99.90;;;;;;6151130;23;20021;-86
2023/03/12 06:03:11;;;;;;;10.77;4.65;;;2.30;99.90;;;;;;6152311;23;20021;-86
2023/03/12 06:05:36;;;;;;;10.80;5.00;;;2.30;99.90;;;;;;6127358;23;20472;-86
2023/03/12 06:08:03;;;;;;;9.40;5.10;;;2.30;99.90;;;;;;6127737;23;20013;-86
2023/03/12 06:10:29;;;;;;;16.42;5.70;;;2.30;99.90;;;;;;6153313;23;20453;-86
2023/03/12 06:12:54;;;;;;;12.60;4.80;;;2.40;99.90;;;;;;6152586;23;20051;-86
2023/03/12 06:15:20;;;;;;;11.80;5.13;;;2.30;99.90;;;;;;6153384;23;20017;-86
2023/03/12 06:17:46;;;;;;;11.75;4.68;;;2.30;99.90;;;;;;6152484;23;20022;-85
2023/03/12 06:20:12;;;;;;;11.75;4.60;;;2.40;99.90;;;;;;6153286;23;20010;-86
2023/03/12 06:22:38;;;;;;;11.82;5.15;;;2.40;99.90;;;;;;6151530;23;20072;-86
2023/03/12 06:25:05;;;;;;;8.95;4.47;;;2.40;99.90;;;;;;6150110;23;20092;-86
2023/03/12 06:27:32;;;;;;;12.10;4.95;;;2.40;99.90;;;;;;6150423;23;20028;-85
2023/03/12 06:29:57;;;;;;;9.85;4.15;;;2.40;99.90;;;;;;6150697;23;20077;-86
2023/03/12 06:32:23;;;;;;;12.32;4.72;;;2.40;99.90;;;;;;6151243;23;20013;-86
2023/03/12 06:34:48;;;;;;;13.00;5.25;;;2.40;99.90;;;;;;6127157;23;20071;-86
2023/03/12 06:37:14;;;;;;;10.52;4.43;;;2.40;99.90;;;;;;6152568;23;20018;-86
2023/03/12 06:39:40;;;;;;;11.43;4.70;;;2.40;99.90;;;;;;6150737;23;20029;-86
2023/03/12 06:42:06;;;;;;;11.00;4.45;;;2.40;99.90;;;;;;6152261;23;20025;-86
2023/03/12 06:44:32;;;;;;;10.32;4.35;;;2.50;99.90;;;;;;6151735;23;20093;-86
2023/03/12 06:46:57;;;;;;;11.25;5.32;;;2.50;99.90;;;;;;6151965;23;20013;-87
2023/03/12 06:49:23;;;;;;;8.68;4.38;;;2.40;99.90;;;;;;6151696;23;20009;-87
2023/03/12 06:51:49;;;;;;;11.80;4.63;;;2.50;99.90;;;;;;6126233;23;20013;-86
2023/03/12 06:54:15;;;;;;;10.02;3.83;;;2.50;99.90;;;;;;6151790;23;20401;-87
2023/03/12 06:56:41;;;;;;;12.95;5.20;;;2.50;99.90;;;;;;6126387;23;20024;-87
2023/03/12 06:59:07;;;;;;;11.25;4.72;;;2.50;99.90;;;;;;6150530;23;20053;-86
2023/03/12 07:01:33;;;;;;;9.77;4.78;;;2.50;99.90;;;;;;6126268;23;20025;-87
2023/03/12 07:03:58;;;;;;;10.90;3.92;;;2.60;99.90;;;;;;6149928;23;20025;-86
2023/03/12 07:06:24;;;;;;;8.98;4.60;;;2.60;99.90;;;;;;6126263;23;20021;-87
2023/03/12 07:08:50;;;;;;;11.20;4.32;;;2.60;99.90;;;;;;6126529;23;20024;-87
2023/03/12 07:11:19;;;;;;;11.93;4.65;;;2.60;99.90;;;;;;6151804;23;20018;-87
2023/03/12 07:13:44;;;;;;;12.27;4.85;;;2.60;99.90;;;;;;6127227;23;20024;-86
2023/03/12 07:16:10;;;;;;;11.00;4.55;;;2.60;99.90;;;;;;6151652;23;20013;-87
2023/03/12 07:18:36;;;;;;;11.27;5.68;;;2.70;99.90;;;;;;6126505;23;20527;-87
2023/03/12 07:21:02;;;;;;;10.48;5.10;;;2.70;99.90;;;;;;6127833;23;20461;-87
2023/03/12 07:23:28;;;;;;;11.95;4.97;;;2.70;99.90;;;;;;6151753;23;20018;-87
2023/03/12 07:25:53;;;;;;;9.07;4.32;;;2.70;99.90;;;;;;6152005;23;20025;-87
2023/03/12 07:28:20;;;;;;;10.07;4.60;;;2.70;99.90;;;;;;6151468;23;20025;-87
2023/03/12 07:30:49;;;;;;;9.55;4.55;;;2.70;99.90;;;;;;6151432;23;20172;-87
2023/03/12 07:33:17;;;;;;;10.80;4.43;;;2.70;99.90;;;;;;6125463;23;20021;-87
2023/03/12 07:35:42;;;;;;;11.95;4.70;;;2.70;99.90;;;;;;6149377;23;20072;-87
2023/03/12 07:38:08;;;;;;;13.52;5.05;;;2.70;99.90;;;;;;6149342;23;20021;-87
2023/03/12 07:40:35;;;;;;;11.35;4.75;;;2.80;99.90;;;;;;6126300;23;20035;-87
2023/03/12 07:43:01;;;;;;;10.63;4.80;;;2.80;99.90;;;;;;6151533;23;20063;-87
2023/03/12 07:45:27;;;;;;;9.38;4.63;;;2.80;99.90;;;;;;6152302;23;20018;-87
2023/03/12 07:47:53;;;;;;;13.25;5.43;;;2.80;99.90;;;;;;6126944;23;20465;-87
2023/03/12 07:50:18;;;;;;;10.82;4.45;;;2.90;99.90;;;;;;6151789;23;20037;-87
2023/03/12 07:52:45;;;;;;;9.40;3.90;;;2.80;99.90;;;;;;6151776;23;20084;-87
2023/03/12 07:55:11;;;;;;;12.32;4.50;;;2.90;99.90;;;;;;6151546;23;20393;-87
2023/03/12 07:57:37;;;;;;;8.90;3.97;;;2.90;99.90;;;;;;6150995;23;20026;-88
2023/03/12 08:00:06;;;;;;;8.32;4.05;;;2.90;99.90;;;;;;6149388;23;20496;-87
2023/03/12 08:02:32;;;;;;;10.70;4.22;;;2.90;99.90;;;;;;6151249;23;20017;-87
2023/03/12 08:04:58;;;;;;;13.15;4.72;;;2.90;99.90;;;;;;6125732;23;20017;-87
2023/03/12 08:07:24;;;;;;;9.65;4.03;;;2.90;99.90;;;;;;6126501;23;20151;-87
2023/03/12 08:09:49;;;;;;;9.38;4.25;;;3.00;99.90;;;;;;6127246;23;20040;-87
2023/03/12 08:12:15;;;;;;;9.13;4.10;;;2.90;99.90;;;;;;6151619;23;20021;-89
2023/03/12 08:14:41;;;;;;;9.75;4.15;;;3.00;99.90;;;;;;6150621;23;20080;-88
2023/03/12 08:17:07;;;;;;;10.05;4.13;;;3.00;99.90;;;;;;6150323;23;20360;-88
2023/03/12 08:19:32;;;;;;;10.73;3.92;;;3.00;99.90;;;;;;6151036;23;20338;-87
2023/03/12 08:21:58;;;;;;;8.50;4.35;;;3.00;99.90;;;;;;6151077;23;20040;-87
2023/03/12 08:24:24;;;;;;;12.75;4.00;;;3.00;99.90;;;;;;6151359;23;20476;-87
2023/03/12 08:26:49;;;;;;;10.00;4.68;;;3.00;99.90;;;;;;6150348;23;20416;-87
2023/03/12 08:29:16;;;;;;;12.90;4.15;;;3.00;99.90;;;;;;6148719;23;20531;-86
2023/03/12 08:31:42;;;;;;;9.80;4.75;;;3.00;99.90;;;;;;6150972;23;20084;-87
2023/03/12 08:34:07;;;;;;;9.27;4.25;;;3.00;99.90;;;;;;6126864;23;20021;-87
2023/03/12 08:36:34;;;;;;;11.07;4.47;;;3.10;99.90;;;;;;6151465;23;20014;-87
2023/03/12 08:39:00;;;;;;;8.68;4.57;;;3.00;99.90;;;;;;6150584;23;20053;-88
2023/03/12 08:41:25;;;;;;;8.65;4.20;;;3.10;99.90;;;;;;6151179;23;20022;-87
2023/03/12 08:43:51;;;;;;;10.45;4.90;;;3.10;99.90;;;;;;6127202;23;20048;-87
2023/03/12 08:46:17;;;;;;;11.70;4.68;;;3.10;99.90;;;;;;6151955;23;20484;-88
2023/03/12 08:48:42;;;;;;;11.85;4.80;;;3.10;99.90;;;;;;6127045;23;20096;-87
2023/03/12 08:51:08;;;;;;;10.95;5.32;;;3.10;99.90;;;;;;6151609;23;20865;-87
2023/03/12 08:53:35;;;;;;;10.07;4.88;;;3.10;99.90;;;;;;6151575;23;20013;-88
2023/03/12 08:56:01;;;;;;;9.65;4.88;;;3.10;99.90;;;;;;6149840;23;20576;-88
2023/03/12 08:58:27;;;;;;;11.45;4.78;;;3.10;99.90;;;;;;6124117;23;20026;-87
2023/03/12 09:00:54;;;;;;;10.70;5.50;;;3.10;99.90;;;;;;6125356;23;20024;-87
2023/03/12 09:03:20;;;;;;;10.05;4.57;;;3.10;99.90;;;;;;6150952;23;20022;-88
2023/03/12 09:05:47;;;;;;;13.20;5.38;;;3.20;99.90;;;;;;6151292;23;20021;-87
2023/03/12 09:08:13;;;;;;;9.65;4.72;;;3.20;99.90;;;;;;6151761;23;20020;-87
2023/03/12 09:10:39;;;;;;;9.88;5.05;;;3.20;99.90;;;;;;6150105;23;20017;-88
2023/03/12 09:13:05;;;;;;;16.77;5.43;;;3.20;99.90;;;;;;6150452;23;20013;-87
2023/03/12 09:15:32;;;;;;;9.88;4.35;;;3.20;99.90;;;;;;6150060;23;20450;-88
2023/03/12 09:17:57;;;;;;;13.65;4.95;;;3.20;99.90;;;;;;6125481;23;20056;-88
2023/03/12 09:20:24;;;;;;;12.80;5.05;;;3.20;99.90;;;;;;6152268;23;20014;-87
2023/03/12 09:22:50;;;;;;;12.10;5.13;;;3.20;99.90;;;;;;6151836;23;20020;-87
2023/03/12 09:25:16;;;;;;;10.60;5.18;;;3.20;99.90;;;;;;6129199;23;20230;-87
2023/03/12 09:27:45;;;;;;;11.82;5.55;;;3.30;99.90;;;;;;6153380;23;20112;-87
2023/03/12 09:30:17;;;;;;;11.57;5.15;;;3.30;99.90;;;;;;6152979;23;20017;-87
2023/03/12 09:32:45;;;;;;;11.77;5.55;;;3.30;99.90;;;;;;6129441;23;20017;-87
2023/03/12 09:35:12;;;;;;;13.95;6.70;;;3.30;99.90;;;;;;6153325;23;20018;-87
2023/03/12 09:37:38;;;;;;;9.60;5.90;;;3.30;99.90;;;;;;6152929;23;20022;-87
2023/03/12 09:40:14;;;;;;;11.45;6.20;;;3.30;99.90;;;;;;6128906;23;20338;-87
2023/03/12 09:42:48;;;;;;;11.05;6.13;;;3.30;99.90;;;;;;6153202;23;20021;-87
2023/03/12 09:45:37;;;;;;;11.07;5.30;;;3.30;99.90;;;;;;6153583;23;20096;-87
2023/03/12 09:48:06;;;;;;;10.88;5.80;;;3.30;99.90;;;;;;6153505;23;20032;-87
2023/03/12 09:50:39;;;;;;;11.23;5.70;;;3.30;99.90;;;;;;6153805;23;20017;-87
2023/03/12 09:53:15;;;;;;;12.70;6.50;;;3.30;99.90;;;;;;6129363;23;20013;-88
2023/03/12 09:55:44;;;;;;;11.88;6.20;;;3.30;99.90;;;;;;6153814;23;20028;-88
2023/03/12 09:58:27;;;;;;;14.27;6.95;;;3.40;99.90;;;;;;6128016;23;20135;-88
2023/03/12 10:01:13;;;;;;;;;;;3.40;99.90;;;;;;6129977;23;20014;-89
2023/03/12 10:04:13;;;;;;;12.13;5.75;;;3.40;99.90;;;;;;6117061;23;19935;-88
2023/03/12 10:06:45;;;;;;;10.45;6.13;;;3.40;99.90;;;;;;6101518;23;20017;-87
2023/03/12 10:09:35;;;;;;;12.75;6.70;;;3.40;99.90;;;;;;6153159;23;20100;-88
2023/03/12 10:12:12;;;;;;;11.98;6.40;;;3.30;99.90;;;;;;6128323;23;20350;-88
2023/03/12 10:15:04;;;;;;;12.68;6.60;;;3.30;99.90;;;;;;6152967;23;20014;-88
2023/03/12 10:17:41;;;;;;;10.73;6.60;;;3.30;99.90;;;;;;6152548;23;20049;-88
2023/03/12 10:20:21;;;;;;;14.48;7.88;;;3.40;99.90;;;;;;6149989;23;20122;-88
2023/03/12 10:22:55;;;;;;;11.52;6.65;;;3.40;99.90;;;;;;6151615;23;20022;-88
2023/03/12 10:25:36;;;;;;;10.45;6.22;;;3.40;99.90;;;;;;6151810;23;20459;-88
2023/03/12 10:28:30;;;;;;;13.18;7.43;;;3.40;99.90;;;;;;6151201;23;20029;-88
2023/03/12 10:31:04;;;;;;;12.20;6.95;;;3.40;99.90;;;;;;6152983;23;20013;-88
2023/03/12 10:33:39;;;;;;;11.77;7.22;;;3.50;99.90;;;;;;6128836;23;20029;-88
2023/03/12 10:36:14;;;;;;;13.68;6.85;;;3.50;99.90;;;;;;6152742;23;20068;-88
2023/03/12 10:38:40;;;;;;;14.95;7.10;;;3.50;99.90;;;;;;6128426;23;20022;-88
2023/03/12 10:41:14;;;;;;;12.23;7.45;;;3.60;99.90;;;;;;6152717;23;20028;-87
2023/03/12 10:43:40;;;;;;;14.73;8.00;;;3.60;99.90;;;;;;6152928;23;20017;-86
2023/03/12 10:46:31;;;;;;;14.57;7.85;;;3.60;99.90;;;;;;6151815;23;20103;-87
2023/03/12 10:49:21;;;;;;;14.75;9.10;;;3.70;99.90;;;;;;6128071;23;20025;-86
2023/03/12 10:52:03;;;;;;;12.98;8.27;;;3.70;99.90;;;;;;6152149;23;20062;-87
2023/03/12 10:54:42;;;;;;;14.68;8.75;;;3.80;99.90;;;;;;6152466;23;20017;-87
2023/03/12 10:57:08;;;;;;;13.13;8.35;;;3.80;99.90;;;;;;6152373;23;20013;-87
2023/03/12 10:59:37;;;;;;;12.90;7.32;;;3.90;99.90;;;;;;6151388;23;20124;-87
2023/03/12 11:02:38;;;;;;;14.30;8.15;;;3.90;99.90;;;;;;6151230;23;20339;-87
2023/03/12 11:05:25;;;;;;;12.90;9.18;;;4.00;99.90;;;;;;6151385;23;20021;-88
2023/03/12 11:07:51;;;;;;;15.90;8.77;;;4.00;99.90;;;;;;6151457;23;20021;-88
2023/03/12 11:10:20;;;;;;;12.90;9.10;;;4.00;99.90;;;;;;6151086;23;20052;-87
2023/03/12 11:13:05;;;;;;;14.55;8.88;;;4.10;99.90;;;;;;6152047;23;20088;-86
2023/03/12 11:15:41;;;;;;;14.68;8.60;;;4.10;99.90;;;;;;6151796;23;20116;-86
2023/03/12 11:18:24;;;;;;;17.02;9.05;;;4.10;99.90;;;;;;6152508;23;20017;-87
2023/03/12 11:21:10;;;;;;;11.68;7.70;;;4.20;99.90;;;;;;6128184;23;20092;-86
2023/03/12 11:23:47;;;;;;;18.33;9.43;;;4.20;99.90;;;;;;6152353;23;20032;-86
2023/03/12 11:26:15;;;;;;;14.40;8.20;;;4.20;99.90;;;;;;6152246;23;20049;-86
2023/03/12 11:28:44;;;;;;;14.57;8.20;;;4.30;99.90;;;;;;6150572;23;20484;-86
2023/03/12 11:31:28;;;;;;;12.60;8.40;;;4.30;99.90;;;;;;6128063;23;20067;-86
2023/03/12 11:34:05;;;;;;;13.25;7.65;;;4.40;99.90;;;;;;6127152;23;20021;-86
2023/03/12 11:36:42;;;;;;;12.15;7.45;;;4.40;99.90;;;;;;6152192;23;20065;-87
2023/03/12 11:39:37;;;;;;;12.85;7.65;;;4.50;99.90;;;;;;6151776;23;20021;-87
2023/03/12 11:42:43;;;;;;;12.60;6.82;;;4.60;99.90;;;;;;6096017;23;20101;-87
2023/03/12 11:45:21;;;;;;;11.98;6.72;;;4.60;99.90;;;;;;6096408;23;20425;-87
2023/03/12 11:48:10;;;;;;;15.07;7.80;;;4.70;99.90;;;;;;6095897;23;20556;-87
2023/03/12 11:50:52;;;;;;;12.98;7.13;;;4.80;99.90;;;;;;6096438;23;20014;-87
2023/03/12 11:53:26;;;;;;;14.88;6.93;;;4.90;99.90;;;;;;6097004;23;20418;-86
2023/03/12 11:56:11;;;;;;;14.18;6.65;;;5.00;99.90;;;;;;6096395;23;20014;-86
2023/03/12 11:58:54;;;;;;;14.13;7.35;;;5.10;99.90;;;;;;6096200;23;20504;-88
2023/03/12 12:01:26;;;;;;;;;;;5.20;99.90;;;;;;6097423;23;20025;-88
2023/03/12 12:04:08;;;;;;;13.05;5.53;;;5.20;99.90;;;;;;6095500;23;19921;-87
2023/03/12 12:07:15;;;;;;;12.32;6.43;;;5.30;99.90;;;;;;6096001;23;20056;-87
2023/03/12 12:09:58;;;;;;;10.65;5.65;;;5.40;99.90;;;;;;6033624;23;20021;-87
2023/03/12 12:12:38;;;;;;;;;;;5.50;99.90;;;;;;6072505;23;20046;-87
2023/03/12 12:15:17;;;;;;;12.27;7.35;;;5.60;99.90;;;;;;6096755;23;19951;-87
2023/03/12 12:18:09;;;;;;;15.30;7.82;;;5.60;99.90;;;;;;6098076;23;20092;-87
2023/03/12 12:20:50;;;;;;;17.13;6.68;;;5.70;99.90;;;;;;6127816;23;20026;-87
2023/03/12 12:23:39;;;;;;;13.68;7.70;;;5.80;99.90;;;;;;6151668;23;20014;-87
2023/03/12 12:26:07;;;;;;;14.43;6.18;;;5.80;99.90;;;;;;6150997;23;20092;-87
2023/03/12 12:28:36;;;;;;;15.45;8.00;;;5.90;99.90;;;;;;6127556;23;20018;-87
2023/03/12 12:31:17;;;;;;;15.02;7.72;;;6.00;99.90;;;;;;6151980;23;20492;-86
2023/03/12 12:34:07;;;;;;;14.63;8.10;;;6.00;99.90;;;;;;6152891;23;20013;-87
2023/03/12 12:36:34;;;;;;;15.27;7.68;;;6.20;99.90;;;;;;6128065;23;20386;-87
2023/03/12 12:39:28;;;;;;;16.95;9.00;;;6.20;99.90;;;;;;6152118;23;20028;-87
2023/03/12 12:41:56;;;;;;;;;;;6.30;99.90;;;;;;6128223;23;20072;-87
2023/03/12 12:44:32;;;;;;;12.35;6.70;;;6.40;99.90;;;;;;6152079;23;19912;-87
2023/03/12 12:47:05;;;;;;;13.13;6.35;;;6.40;99.90;;;;;;6151882;23;20028;-87
2023/03/12 12:49:51;;;;;;;;;;;6.50;99.90;;;;;;6151852;23;20017;-87
2023/03/12 12:52:19;;;;;;;14.18;6.95;;;6.50;99.90;;;;;;6152785;23;19923;-87
2023/03/12 12:55:02;;;;;;;15.45;8.57;;;6.60;99.90;;;;;;6127060;23;20013;-87
2023/03/12 12:57:37;;;;;;;;;;;6.60;99.90;;;;;;6127803;23;20024;-87
2023/03/12 13:00:37;;;;;;;13.98;7.85;;;6.70;99.90;;;;;;6128099;23;19948;-87
2023/03/12 13:03:03;;;;;;;17.48;8.63;;;6.70;99.90;;;;;;6130131;23;20056;-87
2023/03/12 13:05:35;;;;;;;18.55;9.75;;;6.80;99.90;;;;;;6128817;23;20009;-88